Time;durP1;ratioP1;P1;durP2;ratioP2;P2;SDS_P1;SDS_P2;PMS_P1;PMS_P2;Temp;Humidity;BMP_temperature;BMP_pressure;BME280_temperature;BME280_humidity;BME280_pressure;Samples;Min_cycle;Max_cycle;Signal;HPM_P1;HPM_P2
2022/01/01 00:01:57;;;;;;;;;;;;;;;10.83;100.00;99597.77;1690074;83;21183;-79
2022/01/01 00:04:22;;;;;;;;;;;;;;;10.78;100.00;99581.12;1690293;83;21101;-81
2022/01/01 00:06:48;;;;;;;;;;;;;;;10.70;100.00;99609.70;1700441;83;20196;-80
2022/01/01 00:09:14;;;;;;;;;;;;;;;10.74;100.00;99606.25;1686752;83;20597;-80
2022/01/01 00:11:39;;;;;;;;;;;;;;;10.71;100.00;99604.76;1682048;83;20207;-80
2022/01/01 00:14:05;;;;;;;;;;;;;;;10.72;100.00;99606.41;1680610;83;21282;-78
2022/01/01 00:16:30;;;;;;;;;;;;;;;10.77;100.00;99597.47;1686752;83;20506;-80
2022/01/01 00:18:57;;;;;;;;;;;;;;;10.66;100.00;99596.53;1681181;83;20176;-81
2022/01/01 00:21:22;;;;;;;;;;;;;;;10.71;100.00;99596.84;1685367;83;20236;-82
2022/01/01 00:23:49;;;;;;;;;;;;;;;10.68;100.00;99597.17;1686652;83;20180;-86
2022/01/01 00:26:14;;;;;;;;;;;;;;;10.65;100.00;99608.08;1686533;83;20968;-82
2022/01/01 00:28:40;;;;;;;;;;;;;;;10.68;100.00;99607.73;1686488;83;20280;-82
2022/01/01 00:31:07;;;;;;;;;;;;;;;10.71;100.00;99627.20;1690956;83;20200;-82
2022/01/01 00:33:33;;;;;;;;;;;;;;;10.71;100.00;99611.86;1692131;83;20208;-82
2022/01/01 00:35:58;;;;;;;;;;;;;;;10.65;100.00;99610.72;1701299;83;20183;-80
2022/01/01 00:38:24;;;;;;;;;;;;;;;10.61;100.00;99622.60;1688248;83;21054;-81
2022/01/01 00:40:50;;;;;;;;;;;;;;;10.62;100.00;99623.45;1691915;83;20195;-78
2022/01/01 00:43:15;;;;;;;;;;;;;;;10.66;100.00;99616.81;1692602;83;20466;-81
2022/01/01 00:45:41;;;;;;;;;;;;;;;10.64;100.00;99630.19;1693484;83;20218;-80
2022/01/01 00:48:06;;;;;;;;;;;;;;;10.64;100.00;99635.47;1682344;83;20766;-80
2022/01/01 00:50:32;;;;;;;;;;;;;;;10.64;100.00;99632.02;1698404;83;21189;-80
2022/01/01 00:53:01;;;;;;;;;;;;;;;10.63;100.00;99640.44;1696628;83;20738;-81
2022/01/01 00:55:26;;;;;;;;;;;;;;;10.61;100.00;99641.08;1703548;83;20155;-79
2022/01/01 00:57:52;;;;;;;;;;;;;;;10.69;100.00;99651.65;1697202;83;20278;-79
2022/01/01 01:00:18;;;;;;;;;;;;;;;10.71;100.00;99650.16;1697923;83;20517;-80
2022/01/01 01:02:43;;;;;;;;;;;;;;;10.71;100.00;99657.58;1699214;83;21139;-81
2022/01/01 01:05:09;;;;;;;;;;;;;;;10.70;100.00;99654.59;1697114;83;20485;-79
2022/01/01 01:07:34;;;;;;;;;;;;;;;10.69;100.00;99659.57;1700050;83;20285;-82
2022/01/01 01:10:00;;;;;;;;;;;;;;;10.69;100.00;99669.28;1697097;83;20166;-80
2022/01/01 01:12:34;;;;;;;;;;;;;;;10.72;100.00;99668.47;1699870;83;20215;-81
2022/01/01 01:14:54;;;;;;;;;;;;;;;10.69;100.00;99668.81;1688303;83;20117;-84
2022/01/01 01:17:20;;;;;;;;;;;;;;;10.62;100.00;99694.23;1693953;83;20917;-82
2022/01/01 01:19:46;;;;;;;;;;;;;;;10.63;100.00;99673.45;1699556;83;20180;-80
2022/01/01 01:22:11;;;;;;;;;;;;;;;10.69;100.00;99680.70;1701614;83;20139;-81
2022/01/01 01:24:39;;;;;;;;;;;;;;;10.73;100.00;99683.31;1694906;83;20301;-84
2022/01/01 01:27:05;;;;;;;;;;;;;;;10.82;100.00;99689.91;1705692;83;20643;-79
2022/01/01 01:29:32;;;;;;;;;;;;;;;10.81;100.00;99692.22;1696098;83;20136;-80
2022/01/01 01:31:58;;;;;;;;;;;;;;;10.76;100.00;99702.78;1693192;83;20518;-81
2022/01/01 01:34:24;;;;;;;;;;;;;;;10.81;100.00;99702.78;1697482;83;20493;-79
2022/01/01 01:36:49;;;;;;;;;;;;;;;10.85;100.00;99705.42;1701196;83;20160;-80
2022/01/01 01:39:15;;;;;;;;;;;;;;;10.86;100.00;99709.22;1702489;83;22140;-79
2022/01/01 01:41:43;;;;;;;;;;;;;;;10.85;100.00;99705.42;1708344;83;20152;-79
2022/01/01 01:44:32;;;;;;;;;;;;;;;10.87;100.00;99708.70;1704429;83;20134;-80
2022/01/01 01:47:00;;;;;;;;;;;;;;;10.94;100.00;99722.91;1695418;83;20231;-79
2022/01/01 01:49:25;;;;;;;;;;;;;;;10.92;100.00;99716.94;1703318;83;20204;-79
2022/01/01 01:51:51;;;;;;;;;;;;;;;10.95;100.00;99717.92;1696665;83;21183;-82
2022/01/01 01:54:17;;;;;;;;;;;;;;;10.95;100.00;99721.41;1703474;83;20167;-77
2022/01/01 01:56:45;;;;;;;;;;;;;;;10.93;100.00;99715.96;1698289;83;20205;-80
2022/01/01 01:59:10;;;;;;;;;;;;;;;10.94;100.00;99717.62;1697905;83;20204;-82
2022/01/01 02:01:36;;;;;;;;;;;;;;;10.97;100.00;99709.36;1696477;83;21159;-81
2022/01/01 02:04:02;;;;;;;;;;;;;;;10.95;100.00;99711.32;1705424;83;21059;-81
2022/01/01 02:06:27;;;;;;;;;;;;;;;11.00;100.00;99715.62;1694689;83;20198;-80
2022/01/01 02:08:53;;;;;;;;;;;;;;;11.05;100.00;99723.04;1710416;83;20136;-78
2022/01/01 02:11:20;;;;;;;;;;;;;;;11.06;100.00;99725.98;1694885;83;20190;-77
2022/01/01 02:18:52;;;;;;;;;;;;;;;11.05;100.00;99721.21;1692677;83;20481;-78
2022/01/01 02:21:18;;;;;;;;;;;;;;;11.02;100.00;99728.16;1708679;83;20222;-79
2022/01/01 02:23:46;;;;;;;;;;;;;;;11.03;100.00;99728.49;1702572;83;20180;-80
2022/01/01 02:26:12;;;;;;;;;;;;;;;11.00;100.00;99737.23;1690809;83;20148;-77
2022/01/01 02:28:40;;;;;;;;;;;;;;;10.95;100.00;99743.87;1696564;83;20550;-82
2022/01/01 02:31:06;;;;;;;;;;;;;;;10.83;100.00;99735.97;1692737;83;20573;-80
2022/01/01 02:33:32;;;;;;;;;;;;;;;10.94;100.00;99742.21;1708148;83;20156;-79
2022/01/01 02:35:58;;;;;;;;;;;;;;;10.94;100.00;99750.64;1700183;83;20163;-78
2022/01/01 02:38:23;;;;;;;;;;;;;;;10.90;100.00;99763.84;1697105;83;20244;-84
2022/01/01 02:40:49;;;;;;;;;;;;;;;10.97;100.00;99762.20;1700658;83;21879;-79
2022/01/01 02:43:16;;;;;;;;;;;;;;;10.89;100.00;99762.19;1694484;83;20219;-79
2022/01/01 02:45:42;;;;;;;;;;;;;;;10.83;100.00;99762.38;1705993;83;20188;-79
2022/01/01 02:48:07;;;;;;;;;;;;;;;10.73;100.00;99755.94;1700644;83;20128;-81
2022/01/01 02:50:33;;;;;;;;;;;;;;;10.70;100.00;99766.83;1692085;83;20136;-83
2022/01/01 02:52:59;;;;;;;;;;;;;;;10.74;100.00;99772.13;1686752;83;21160;-78
2022/01/01 02:55:24;;;;;;;;;;;;;;;10.68;100.00;99763.54;1695460;83;20127;-78
2022/01/01 02:57:50;;;;;;;;;;;;;;;10.71;100.00;99753.97;1694170;83;20178;-82
2022/01/01 03:00:16;;;;;;;;;;;;;;;10.72;100.00;99754.30;1683286;83;20450;-78
2022/01/01 03:02:44;;;;;;;;;;;;;;;10.69;100.00;99765.20;1693531;83;20223;-79
2022/01/01 03:05:09;;;;;;;;;;;;;;;10.76;100.00;99772.77;1699163;83;20173;-78
2022/01/01 03:07:36;;;;;;;;;;;;;;;10.67;100.00;99768.48;1699468;83;20164;-79
2022/01/01 03:10:02;;;;;;;;;;;;;;;10.61;100.00;99771.78;1688494;83;20204;-86
2022/01/01 03:12:27;;;;;;;;;;;;;;;10.65;100.00;99777.08;1690747;83;20255;-81
2022/01/01 03:14:53;;;;;;;;;;;;;;;10.54;100.00;99780.06;1688622;83;20142;-80
2022/01/01 03:17:18;;;;;;;;;;;;;;;10.56;100.00;99785.98;1691990;83;21003;-80
2022/01/01 03:19:44;;;;;;;;;;;;;;;10.58;100.00;99786.64;1699302;83;20141;-79
2022/01/01 03:22:10;;;;;;;;;;;;;;;10.57;100.00;99792.93;1684282;83;20147;-79
2022/01/01 03:24:35;;;;;;;;;;;;;;;10.63;100.00;99788.31;1692664;83;20159;-78
2022/01/01 03:27:01;;;;;;;;;;;;;;;10.58;100.00;99798.05;1684975;83;20156;-79
2022/01/01 03:29:30;;;;;;;;;;;;;;;10.52;100.00;99800.53;1684192;83;21196;-78
2022/01/01 03:31:55;;;;;;;;;;;;;;;10.55;100.00;99810.25;1694147;83;20168;-81
2022/01/01 03:34:21;;;;;;;;;;;;;;;10.58;100.00;99805.13;1683491;83;20156;-78
2022/01/01 03:36:47;;;;;;;;;;;;;;;10.49;100.00;99803.50;1691719;83;20216;-79
2022/01/01 03:39:13;;;;;;;;;;;;;;;10.46;100.00;99811.74;1704773;83;20181;-79
2022/01/01 03:41:38;;;;;;;;;;;;;;;10.43;100.00;99808.11;1700522;83;21097;-80
2022/01/01 03:44:04;;;;;;;;;;;;;;;10.52;100.00;99807.12;1686205;83;20514;-80
2022/01/01 03:46:30;;;;;;;;;;;;;;;10.53;100.00;99812.72;1700067;83;20191;-79
2022/01/01 03:48:55;;;;;;;;;;;;;;;10.56;100.00;99821.63;1697194;83;20152;-79
2022/01/01 03:51:21;;;;;;;;;;;;;;;10.53;100.00;99821.95;1671419;83;20177;-81
2022/01/01 03:53:46;;;;;;;;;;;;;;;10.43;100.00;99823.95;1653268;85;21263;-78
2022/01/01 03:56:14;;;;;;;;;;;;;;;10.45;100.00;99818.00;1653689;86;20135;-81
2022/01/01 03:58:40;;;;;;;;;;;;;;;10.50;100.00;99828.89;1650284;85;20905;-78
2022/01/01 04:01:05;;;;;;;;;;;;;;;10.40;100.00;99841.74;1654936;85;20239;-80
2022/01/01 04:03:31;;;;;;;;;;;;;;;10.39;100.00;99844.07;1648487;86;20460;-79
2022/01/01 04:05:57;;;;;;;;;;;;;;;10.39;100.00;99853.78;1648337;86;21062;-79
2022/01/01 04:08:22;;;;;;;;;;;;;;;10.43;100.00;99867.50;1652582;86;20197;-82
2022/01/01 04:10:48;;;;;;;;;;;;;;;10.34;100.00;99875.38;1649615;86;20664;-82
2022/01/01 04:13:13;;;;;;;;;;;;;;;10.34;100.00;99878.02;1653631;86;20134;-78
2022/01/01 04:15:40;;;;;;;;;;;;;;;10.32;100.00;99874.70;1654182;86;20141;-77
2022/01/01 04:18:10;;;;;;;;;;;;;;;10.27;100.00;99877.48;1654057;85;21159;-81
2022/01/01 04:20:33;;;;;;;;;;;;;;;10.19;100.00;99871.68;1652199;86;20173;-85
2022/01/01 04:22:59;;;;;;;;;;;;;;;10.20;100.00;99878.63;1656078;85;20178;-83
2022/01/01 04:25:25;;;;;;;;;;;;;;;10.21;100.00;99881.61;1653110;85;20550;-78
2022/01/01 04:27:52;;;;;;;;;;;;;;;10.21;100.00;99882.92;1654160;85;20194;-79
2022/01/01 04:30:17;;;;;;;;;;;;;;;10.17;100.00;99887.67;1648955;85;21240;-81
2022/01/01 04:32:43;;;;;;;;;;;;;;;10.18;100.00;99884.56;1650266;86;21215;-79
2022/01/01 04:35:09;;;;;;;;;;;;;;;10.13;100.00;99897.39;1654060;85;20455;-79
2022/01/01 04:37:35;;;;;;;;;;;;;;;10.09;100.00;99893.44;1653837;85;20140;-80
2022/01/01 04:40:01;;;;;;;;;;;;;;;10.06;100.00;99894.06;1655030;85;20495;-81
2022/01/01 04:42:27;;;;;;;;;;;;;;;10.02;100.00;99895.86;1655995;85;21058;-80
2022/01/01 04:44:53;;;;;;;;;;;;;;;10.03;100.00;99894.38;1656028;85;20169;-78
2022/01/01 04:47:18;;;;;;;;;;;;;;;10.04;100.00;99896.05;1654384;85;20143;-78
2022/01/01 04:49:44;;;;;;;;;;;;;;;10.03;100.00;99891.74;1655615;86;20815;-78
2022/01/01 04:52:10;;;;;;;;;;;;;;;10.05;100.00;99892.44;1670651;85;20136;-78
2022/01/01 04:54:39;;;;;;;;;;;;;;;9.93;100.00;99896.34;1684666;85;21215;-79
2022/01/01 04:57:03;;;;;;;;;;;;;;;9.92;100.00;99894.67;1681911;85;20142;-79
2022/01/01 04:59:29;;;;;;;;;;;;;;;10.01;100.00;99900.83;1676856;83;20299;-80
2022/01/01 05:01:54;;;;;;;;;;;;;;;10.03;100.00;99909.39;1683562;85;20140;-79
2022/01/01 05:04:20;;;;;;;;;;;;;;;9.99;100.00;99919.45;1677925;85;20199;-81
2022/01/01 05:06:49;;;;;;;;;;;;;;;10.08;100.00;99920.29;1680099;85;21136;-77
2022/01/01 05:09:13;;;;;;;;;;;;;;;10.01;100.00;99921.42;1678390;85;20171;-78
2022/01/01 05:11:38;;;;;;;;;;;;;;;9.88;100.00;99927.61;1676577;85;20172;-79
2022/01/01 05:14:04;;;;;;;;;;;;;;;9.89;100.00;99926.64;1677012;85;20608;-78
2022/01/01 05:16:29;;;;;;;;;;;;;;;9.87;100.00;99931.25;1679066;85;20240;-79
2022/01/01 05:18:56;;;;;;;;;;;;;;;9.76;100.00;99944.72;1679925;85;21144;-78
2022/01/01 05:21:21;;;;;;;;;;;;;;;9.83;100.00;99929.91;1679338;85;20171;-77
2022/01/01 05:23:47;;;;;;;;;;;;;;;9.84;100.00;99930.25;1681111;85;20168;-80
2022/01/01 05:26:13;;;;;;;;;;;;;;;9.95;100.00;99960.80;1683408;85;20152;-79
2022/01/01 05:28:38;;;;;;;;;;;;;;;9.91;100.00;99945.77;1684609;83;20297;-78
2022/01/01 05:31:04;;;;;;;;;;;;;;;9.87;100.00;99954.99;1679035;85;21053;-80
2022/01/01 05:33:30;;;;;;;;;;;;;;;9.89;100.00;99955.66;1681825;85;20198;-77
2022/01/01 05:35:55;;;;;;;;;;;;;;;9.85;100.00;99960.89;1683174;85;20215;-80
2022/01/01 05:38:21;;;;;;;;;;;;;;;9.86;100.00;99961.23;1675750;85;20541;-79
2022/01/01 05:40:46;;;;;;;;;;;;;;;9.80;100.00;99970.59;1685518;83;20141;-78
2022/01/01 05:43:16;;;;;;;;;;;;;;;9.82;100.00;99978.34;1684972;85;21175;-79
2022/01/01 05:45:42;;;;;;;;;;;;;;;9.78;100.00;99975.20;1678666;85;20137;-78
2022/01/01 05:48:08;;;;;;;;;;;;;;;9.82;100.00;99976.56;1680006;84;20160;-77
2022/01/01 05:50:34;;;;;;;;;;;;;;;9.78;100.00;99988.89;1685143;83;20181;-78
2022/01/01 05:53:00;;;;;;;;;;;;;;;9.72;100.00;99990.33;1707092;83;21275;-79
2022/01/01 05:55:26;;;;;;;;;;;;;;;9.65;100.00;100012.53;1717288;82;20670;-78
2022/01/01 05:57:52;;;;;;;;;;;;;;;9.62;100.00;99991.75;1709692;83;20190;-79
2022/01/01 06:00:17;;;;;;;;;;;;;;;9.61;100.00;100003.27;1703723;83;20475;-79
2022/01/01 06:02:43;;;;;;;;;;;;;;;9.65;100.00;100003.31;1701621;83;20252;-80
2022/01/01 06:05:09;;;;;;;;;;;;;;;9.59;100.00;100003.10;1703474;83;20210;-78
2022/01/01 06:07:35;;;;;;;;;;;;;;;9.58;100.00;100012.80;1679269;83;21284;-78
2022/01/01 06:10:01;;;;;;;;;;;;;;;9.63;100.00;99998.69;1702194;83;21166;-79
2022/01/01 06:12:26;;;;;;;;;;;;;;;9.51;100.00;99998.59;1715651;83;20119;-78
2022/01/01 06:14:52;;;;;;;;;;;;;;;9.56;100.00;100007.36;1703975;83;20149;-80
2022/01/01 06:17:17;;;;;;;;;;;;;;;9.56;100.00;99993.69;1706341;82;20123;-78
2022/01/01 06:19:43;;;;;;;;;;;;;;;9.55;100.00;100001.24;1710686;83;21127;-82
2022/01/01 06:22:09;;;;;;;;;;;;;;;9.53;100.00;100013.76;1702715;83;20123;-79
2022/01/01 06:24:34;;;;;;;;;;;;;;;9.48;100.00;100009.45;1700381;83;20219;-79
2022/01/01 06:27:00;;;;;;;;;;;;;;;9.57;100.00;100011.17;1712217;82;20162;-78
2022/01/01 06:29:26;;;;;;;;;;;;;;;9.61;100.00;100010.36;1701207;82;20143;-83
2022/01/01 06:31:51;;;;;;;;;;;;;;;9.59;100.00;100025.52;1703181;83;21095;-79
2022/01/01 06:34:17;;;;;;;;;;;;;;;9.53;100.00;100022.48;1691040;83;20318;-82
2022/01/01 06:36:42;;;;;;;;;;;;;;;9.54;100.00;100039.15;1707318;83;20155;-84
2022/01/01 06:39:08;;;;;;;;;;;;;;;9.56;100.00;100022.68;1699288;83;20167;-83
2022/01/01 06:41:34;;;;;;;;;;;;;;;9.68;100.00;100025.41;1709070;83;20188;-79
2022/01/01 06:43:59;;;;;;;;;;;;;;;9.60;100.00;100042.50;1705947;82;21157;-79
2022/01/01 06:46:25;;;;;;;;;;;;;;;9.58;100.00;100045.75;1711216;83;20134;-78
2022/01/01 06:48:50;;;;;;;;;;;;;;;9.49;100.00;100036.13;1699669;83;21184;-78
2022/01/01 06:51:16;;;;;;;;;;;;;;;9.52;100.00;100035.34;1702657;83;21052;-78
2022/01/01 06:53:42;;;;;;;;;;;;;;;9.53;100.00;100041.44;1690227;83;20212;-83
2022/01/01 06:56:07;;;;;;;;;;;;;;;9.54;100.00;100052.33;1703099;83;21111;-80
2022/01/01 06:58:37;;;;;;;;;;;;;;;9.45;100.00;100047.47;1699498;83;21055;-77
2022/01/01 07:01:03;;;;;;;;;;;;;;;9.48;100.00;100045.03;1699321;83;20184;-85
2022/01/01 07:03:28;;;;;;;;;;;;;;;9.41;100.00;100054.51;1699546;83;20197;-81
2022/01/01 07:05:54;;;;;;;;;;;;;;;9.43;100.00;100052.54;1694003;83;20180;-77
2022/01/01 07:08:20;;;;;;;;;;;;;;;9.43;100.00;100067.03;1697473;83;20985;-78
2022/01/01 07:10:48;;;;;;;;;;;;;;;9.43;100.00;100069.20;1699774;83;20754;-77
2022/01/01 07:13:14;;;;;;;;;;;;;;;9.37;100.00;100072.91;1704061;83;20188;-78
2022/01/01 07:15:40;;;;;;;;;;;;;;;9.45;100.00;100075.64;1694210;83;20180;-77
2022/01/01 07:18:05;;;;;;;;;;;;;;;9.46;100.00;100083.87;1704401;83;20184;-78
2022/01/01 07:20:31;;;;;;;;;;;;;;;9.44;100.00;100081.37;1703888;83;21160;-82
2022/01/01 07:22:56;;;;;;;;;;;;;;;9.33;100.00;100085.06;1706010;83;20470;-78
2022/01/01 07:25:22;;;;;;;;;;;;;;;9.43;100.00;100094.71;1707548;83;20184;-80
2022/01/01 07:27:48;;;;;;;;;;;;;;;9.43;100.00;100086.80;1704011;83;20206;-78
2022/01/01 07:30:13;;;;;;;;;;;;;;;9.38;100.00;100089.07;1706200;83;20172;-77
2022/01/01 07:32:40;;;;;;;;;;;;;;;9.34;100.00;100089.38;1701822;83;21056;-77
2022/01/01 07:35:06;;;;;;;;;;;;;;;9.27;100.00;100090.94;1692450;83;20152;-78
2022/01/01 07:37:32;;;;;;;;;;;;;;;9.37;100.00;100088.72;1696795;83;20197;-80
2022/01/01 07:39:57;;;;;;;;;;;;;;;9.29;100.00;100104.81;1698907;83;20534;-78
2022/01/01 07:42:23;;;;;;;;;;;;;;;9.25;100.00;100090.27;1700446;83;20505;-78
2022/01/01 07:44:48;;;;;;;;;;;;;;;9.30;100.00;100088.00;1702149;83;21112;-78
2022/01/01 07:47:14;;;;;;;;;;;;;;;9.32;100.00;100093.12;1704737;83;21024;-79
2022/01/01 07:49:42;;;;;;;;;;;;;;;9.37;100.00;100075.55;1700257;83;20242;-84
2022/01/01 07:52:07;;;;;;;;;;;;;;;9.31;100.00;100081.77;1694047;83;20179;-79
2022/01/01 07:54:33;;;;;;;;;;;;;;;9.26;100.00;100086.66;1705791;83;20192;-78
2022/01/01 07:56:58;;;;;;;;;;;;;;;9.26;100.00;100091.93;1689551;83;21089;-82
2022/01/01 07:59:24;;;;;;;;;;;;;;;9.20;100.00;100095.16;1693720;83;21354;-79
2022/01/01 08:01:50;;;;;;;;;;;;;;;9.16;100.00;100103.83;1700736;83;20166;-81
2022/01/01 08:04:15;;;;;;;;;;;;;;;9.29;100.00;100098.69;1696714;83;20147;-79
2022/01/01 08:06:41;;;;;;;;;;;;;;;9.29;100.00;100107.45;1696012;83;20124;-77
2022/01/01 08:09:07;;;;;;;;;;;;;;;9.26;100.00;100109.06;1692756;83;21199;-77
2022/01/01 08:11:32;;;;;;;;;;;;;;;9.36;100.00;100112.13;1705120;83;20489;-79
2022/01/01 08:13:58;;;;;;;;;;;;;;;9.33;100.00;100114.05;1694287;83;20148;-77
2022/01/01 08:16:23;;;;;;;;;;;;;;;9.37;100.00;100117.70;1697210;83;20155;-76
2022/01/01 08:18:49;;;;;;;;;;;;;;;9.37;100.00;100107.17;1698653;83;20455;-81
2022/01/01 08:21:14;;;;;;;;;;;;;;;9.39;100.00;100111.82;1694595;83;21096;-77
2022/01/01 08:23:40;;;;;;;;;;;;;;;9.29;100.00;100115.35;1701888;83;20500;-81
2022/01/01 08:26:06;;;;;;;;;;;;;;;9.32;100.00;100119.01;1700106;83;20175;-78
2022/01/01 08:28:31;;;;;;;;;;;;;;;9.40;100.00;100121.36;1689728;83;20599;-78
2022/01/01 08:30:57;;;;;;;;;;;;;;;9.41;100.00;100126.98;1693136;83;20128;-76
2022/01/01 08:33:22;;;;;;;;;;;;;;;9.37;100.00;100119.03;1699648;83;21085;-78
2022/01/01 08:35:48;;;;;;;;;;;;;;;9.36;100.00;100133.20;1701196;83;20151;-82
2022/01/01 08:38:14;;;;;;;;;;;;;;;9.29;100.00;100139.53;1703704;83;20152;-78
2022/01/01 08:40:39;;;;;;;;;;;;;;;9.31;100.00;100138.42;1702440;83;20493;-80
2022/01/01 08:43:05;;;;;;;;;;;;;;;9.29;100.00;100136.43;1697996;83;20475;-83
2022/01/01 08:45:31;;;;;;;;;;;;;;;9.28;100.00;100139.21;1692187;83;21176;-83
2022/01/01 08:47:56;;;;;;;;;;;;;;;9.28;100.00;100140.03;1694951;83;20297;-80
2022/01/01 08:50:22;;;;;;;;;;;;;;;9.33;100.00;100143.05;1696862;83;20183;-78
2022/01/01 08:52:48;;;;;;;;;;;;;;;9.37;100.00;100145.38;1695295;83;20135;-76
2022/01/01 08:55:13;;;;;;;;;;;;;;;9.27;100.00;100133.09;1696416;83;20255;-76
2022/01/01 08:57:39;;;;;;;;;;;;;;;9.29;100.00;100132.95;1709197;83;21259;-78
2022/01/01 09:00:07;;;;;;;;;;;;;;;9.34;100.00;100149.98;1698090;83;20275;-76
2022/01/01 09:02:33;;;;;;;;;;;;;;;9.38;100.00;100145.73;1696281;83;20243;-81
2022/01/01 09:04:58;;;;;;;;;;;;;;;9.41;100.00;100152.02;1690423;83;20725;-77
2022/01/01 09:07:31;;;;;;;;;;;;;;;9.37;100.00;100154.14;1687891;83;20519;-79
2022/01/01 09:09:57;;;;;;;;;;;;;;;9.43;100.00;100153.55;1693173;83;22050;-79
2022/01/01 09:12:23;;;;;;;;;;;;;;;9.41;100.00;100146.75;1699311;83;20140;-80
2022/01/01 09:14:49;;;;;;;;;;;;;;;9.58;100.00;100144.62;1700761;83;20210;-79
2022/01/01 09:17:14;;;;;;;;;;;;;;;9.49;100.00;100144.20;1699160;83;20575;-79
2022/01/01 09:19:40;;;;;;;;;;;;;;;9.46;100.00;100162.94;1696151;83;20163;-79
2022/01/01 09:22:06;;;;;;;;;;;;;;;9.48;100.00;100145.19;1701342;83;21049;-83
2022/01/01 09:24:32;;;;;;;;;;;;;;;9.57;100.00;100141.66;1688582;83;20167;-84
2022/01/01 09:26:58;;;;;;;;;;;;;;;9.60;100.00;100141.83;1694260;83;20490;-78
2022/01/01 09:29:23;;;;;;;;;;;;;;;9.59;100.00;100150.23;1705551;83;20137;-80
2022/01/01 09:31:49;;;;;;;;;;;;;;;9.67;100.00;100143.72;1696409;83;20167;-80
2022/01/01 09:34:14;;;;;;;;;;;;;;;9.74;100.00;100157.16;1705505;83;21106;-79
2022/01/01 09:36:40;;;;;;;;;;;;;;;9.74;100.00;100151.88;1703699;83;20528;-80
2022/01/01 09:39:07;;;;;;;;;;;;;;;9.72;100.00;100162.23;1704207;83;20372;-80
2022/01/01 09:41:33;;;;;;;;;;;;;;;9.54;100.00;100152.50;1699322;83;20212;-84
2022/01/01 09:43:58;;;;;;;;;;;;;;;9.68;100.00;100153.30;1700096;83;20177;-78
2022/01/01 09:46:26;;;;;;;;;;;;;;;9.76;100.00;100145.95;1691883;83;21099;-81
2022/01/01 09:48:51;;;;;;;;;;;;;;;9.72;100.00;100160.41;1702693;83;20156;-79
2022/01/01 09:51:17;;;;;;;;;;;;;;;9.72;100.00;100157.77;1701273;83;20266;-80
2022/01/01 09:53:43;;;;;;;;;;;;;;;9.70;100.00;100153.97;1690837;83;20152;-82
2022/01/01 09:56:08;;;;;;;;;;;;;;;9.79;100.00;100155.35;1686080;83;20168;-78
2022/01/01 09:58:35;;;;;;;;;;;;;;;9.76;100.00;100158.31;1681100;83;21099;-79
2022/01/01 10:01:02;;;;;;;;;;;;;;;9.73;100.00;100146.75;1691322;83;20159;-82
2022/01/01 10:03:31;;;;;;;;;;;;;;;9.72;100.00;100151.68;1678357;83;20944;-81
2022/01/01 10:06:05;;;;;;;;;;;;;;;9.70;100.00;100151.83;1682882;83;20192;-78
2022/01/01 10:08:32;;;;;;;;;;;;;;;9.68;100.00;100157.25;1699493;83;20236;-78
2022/01/01 10:10:58;;;;;;;;;;;;;;;9.84;100.00;100155.75;1695869;83;21192;-78
2022/01/01 10:13:31;;;;;;;;;;;;;;;9.81;100.00;100163.96;1684571;83;20127;-83
2022/01/01 10:15:58;;;;;;;;;;;;;;;9.86;100.00;100156.41;1680889;83;20188;-79
2022/01/01 10:18:26;;;;;;;;;;;;;;;9.88;100.00;100162.36;1694519;83;20181;-77
2022/01/01 10:20:57;;;;;;;;;;;;;;;9.69;100.00;100161.55;1698073;83;20268;-76
2022/01/01 10:23:27;;;;;;;;;;;;;;;9.80;100.00;100162.30;1692092;83;21079;-76
2022/01/01 10:28:34;;;;;;;;;;;;;;;9.88;100.00;100162.36;1689668;83;20163;-78
2022/01/01 10:31:00;;;;;;;;;;;;;;;9.97;100.00;100170.69;1686861;83;20132;-80
2022/01/01 10:33:26;;;;;;;;;;;;;;;9.95;100.00;100166.06;1694550;83;20144;-79
2022/01/01 10:35:58;;;;;;;;;;;;;;;9.96;100.00;100165.09;1666390;83;40534;-82
2022/01/01 10:38:28;;;;;;;;;;;;;;;10.02;100.00;100177.67;1682160;83;20292;-82
2022/01/01 10:40:56;;;;;;;;;;;;;;;10.07;100.00;100154.79;1679451;83;20481;-76
2022/01/01 10:43:24;;;;;;;;;;;;;;;10.04;100.00;100151.14;1687079;83;20651;-82
2022/01/01 10:45:50;;;;;;;;;;;;;;;10.07;100.00;100158.75;1674738;83;20606;-77
2022/01/01 10:48:27;;;;;;;;;;;;;;;10.14;100.00;100166.88;1654156;83;21115;-79
2022/01/01 10:50:52;;;;;;;;;;;;;;;10.17;100.00;100165.25;1693602;83;20156;-80
2022/01/01 10:53:22;;;;;;;;;;;;;;;10.17;100.00;100167.39;1688445;83;21038;-79
2022/01/01 10:55:56;;;;;;;;;;;;;;;10.18;100.00;100184.06;1681085;83;20374;-80
2022/01/01 10:58:23;;;;;;;;;;;;;;;10.18;100.00;100197.27;1681389;83;20204;-80
2022/01/01 11:00:49;;;;;;;;;;;;;;;10.24;100.00;100192.70;1696482;83;22360;-81
2022/01/01 11:03:16;;;;;;;;;;;;;;;10.29;100.00;100181.17;1691037;83;20163;-81
2022/01/01 11:05:42;;;;;;;;;;;;;;;10.33;100.00;100199.73;1693951;83;20173;-81
2022/01/01 11:08:09;;;;;;;;;;;;;;;10.30;100.00;100215.84;1687203;83;20247;-81
2022/01/01 11:10:38;;;;;;;;;;;;;;;10.34;100.00;100213.24;1696764;83;20224;-82
2022/01/01 11:13:04;;;;;;;;;;;;;;;10.30;100.00;100195.20;1687296;83;21105;-80
2022/01/01 11:15:32;;;;;;;;;;;;;;;10.28;100.00;100190.06;1692281;83;20152;-80
2022/01/01 11:17:58;;;;;;;;;;;;;;;10.33;100.00;100205.01;1696782;83;20159;-81
2022/01/01 11:20:24;;;;;;;;;;;;;;;10.29;100.00;100208.89;1685142;83;20175;-83
2022/01/01 11:22:50;;;;;;;;;;;;;;;10.31;100.00;100225.39;1692275;83;20581;-77
2022/01/01 11:25:17;;;;;;;;;;;;;;;10.39;100.00;100225.98;1692283;83;21188;-79
2022/01/01 11:27:43;;;;;;;;;;;;;;;10.37;100.00;100216.90;1693185;83;20299;-81
2022/01/01 11:30:13;;;;;;;;;;;;;;;10.34;100.00;100244.92;1692263;83;20208;-79
2022/01/01 11:32:53;;;;;;;;;;;;;;;10.41;100.00;100244.66;1685787;83;20204;-78
2022/01/01 11:35:21;;;;;;;;;;;;;;;10.51;100.00;100219.98;1686035;83;20231;-79
2022/01/01 11:37:59;;;;;;;;;;;;;;;10.46;100.00;100234.96;1686489;83;21273;-79
2022/01/01 11:40:25;;;;;;;;;;;;;;;10.50;100.00;100211.71;1688730;83;20148;-79
2022/01/01 11:42:51;;;;;;;;;;;;;;;10.47;100.00;100230.50;1679197;83;20213;-81
2022/01/01 11:45:38;;;;;;;;;;;;;;;10.52;100.00;100225.61;1692554;83;20200;-79
2022/01/01 11:48:33;;;;;;;;;;;;;;;10.50;100.00;100240.28;1684559;83;20240;-82
2022/01/01 11:51:03;;;;;;;;;;;;;;;10.39;100.00;100246.63;1689210;83;21048;-81
2022/01/01 11:53:32;;;;;;;;;;;;;;;10.40;100.00;100275.99;1683536;83;20155;-82
2022/01/01 11:56:08;;;;;;;;;;;;;;;10.39;100.00;100267.75;1655724;85;20183;-82
2022/01/01 11:58:48;;;;;;;;;;;;;;;10.41;100.00;100275.02;1649022;86;20246;-79
2022/01/01 12:01:22;;;;;;;;;;;;;;;10.40;100.00;100270.71;1658081;86;20381;-79
2022/01/01 12:03:49;;;;;;;;;;;;;;;10.47;100.00;100272.74;1649830;86;21148;-79
2022/01/01 12:06:15;;;;;;;;;;;;;;;10.33;100.00;100276.75;1651761;86;20316;-79
2022/01/01 12:08:44;;;;;;;;;;;;;;;10.35;100.00;100278.27;1650063;85;20127;-81
2022/01/01 12:11:11;;;;;;;;;;;;;;;10.40;100.00;100279.95;1659829;86;20604;-81
2022/01/01 12:13:38;;;;;;;;;;;;;;;10.48;100.00;100284.97;1629774;85;20222;-80
2022/01/01 12:16:13;;;;;;;;;;;;;;;10.49;100.00;100295.88;1658255;86;22841;-79
2022/01/01 12:18:39;;;;;;;;;;;;;;;10.40;100.00;100348.59;1623895;86;20163;-79
2022/01/01 12:21:05;;;;;;;;;;;;;;;10.25;99.83;100326.30;1612424;86;20909;-78
2022/01/01 12:23:32;;;;;;;;;;;;;;;10.36;99.23;100302.84;1652677;86;20212;-78
2022/01/01 12:25:58;;;;;;;;;;;;;;;10.28;98.14;100300.92;1656385;85;20179;-78
2022/01/01 12:28:32;;;;;;;;;;;;;;;10.31;96.91;100307.22;1654841;85;21152;-78
2022/01/01 12:31:15;;;;;;;;;;;;;;;10.30;96.73;100310.86;1657471;85;20177;-79
2022/01/01 12:33:45;;;;;;;;;;;;;;;10.27;95.50;100323.04;1627245;86;20219;-79
2022/01/01 12:36:13;;;;;;;;;;;;;;;10.29;95.00;100321.06;1654920;85;20182;-83
2022/01/01 12:38:39;;;;;;;;;;;;;;;10.27;93.79;100315.13;1655089;86;20227;-80
2022/01/01 12:41:22;;;;;;;;;;;;;;;10.23;93.15;100299.23;1648532;85;21064;-81